ELM weather

Elmira Corning Regional Airport
Elmira/Corning, New York, United States

Public forecast

Using degrees Fahrenheit for public forecast. Weather courtesy of forecast.io.

Current aviation weather report (METAR) for Elmira Corning Regional Airport

Retrieved 2019/12/07 17:53 UTC (48 minutes ago):

KELM 071753Z 30007KT 10SM SCT041 00/M09 A3036 RMK AO2 SLP293 T00001094 10006 21022 58003

Aviation forecast (TAF) for Elmira Corning Regional Airport

Retrieved 2019/12/07 18:40 UTC (1 minute ago):

TAF KELM 071737Z 0718/0818 30006KT P6SM SCT035 BKN045 FM072100 VRB03KT P6SM SCT080 SCT250 FM081200 18006KT P6SM SCT250 WS020/20035KT FM081600 19011G19KT P6SM SCT200 WS020/21045KT